x

Santa Maria - 21nm Nw Of Point Arguello, Ca (46011) Wave Buoy

8:50am - Sun 28th May 2017 All times are PDT. -7 hours from GMT.

  • Sig Wave height 4.9ft
  • Swell Direction
  • Peak Period 6s
  • Average Period 5s
  • Wind
    22mph, 27mph gusts
  • Sea Temp 54°f
  • Air Temp 54°f
  • Sea Pressure 1018mb
  • Santa Maria - 21nm Nw Of Point Arguello, Ca
  • Santa Maria - 21nm Nw Of Point Arguello, Ca

More Historic Weather Station data

Upgrade to MSW Pro to gain access to the past 30 days of data for over 8000 Wavebouys and Weather Stations around the globe.

Join Pro

Comparision Forecast

View Surf forecast
   
Sun 05/28 8:50am 5ft 6s 5s 22 27 mph 1018mb 54f 54f
7:50am 5ft 6s 5s 20 25 mph 1018mb 55f 54f
6:50am 4.5ft 6s 5s 20 25 mph 1017.5mb 55f 54f
5:50am 4.5ft 14s 5s 20 25 mph 1017.5mb 55f 55f
4:50am 4.5ft 12s 5s 22 27 mph 1017.1mb 55f 55f
3:50am 4ft 10s 5s 20 25 mph 1017.1mb 55f 55f
2:50am 3.5ft 10s 6s 16 20 mph 1017.6mb 55f 56f
1:50am 4ft 10s 6s 16 18 mph 1018.1mb 55f 56f
12:50am 4ft 13s 6s 13 16 mph 1018.6mb 55f 56f
Sat 05/27 11:50pm 4ft 12s 6s 11 13 mph 1018.9mb 55f 56f
10:50pm 4ft 9s 6s 11 13 mph 1019mb 55f 56f
9:50pm 4ft 13s 6s 9 13 mph 1018.9mb 55f 56f
8:50pm 3.5ft 10s 6s 9 9 mph 1018.8mb 55f 56f
7:50pm 3.5ft 10s 5s 16 18 mph 1018.4mb 56f 57f
6:50pm 3.5ft 14s 6s 13 16 mph 1018.6mb 56f 57f
5:50pm 3.5ft 15s 6s 11 16 mph 1018.9mb 56f 57f
4:50pm 3.5ft 15s 6s 11 13 mph 1019mb 56f 57f
3:50pm 3.5ft 10s 6s 13 16 mph 1019.1mb 56f 57f
2:50pm 4ft 10s 7s 11 13 mph 1019.2mb 56f 56f
12:50pm 4ft 10s 7s 11 13 mph 1019.8mb 56f 56f
11:50am 3.5ft 14s 7s 11 13 mph 1019.9mb 55f 56f
10:50am 3.5ft 11s 8s 9 11 mph 1019.8mb 55f 55f
9:50am 3.5ft 15s 7s 9 11 mph 1019.8mb 55f 55f
8:50am 3.5ft 15s 8s 7 7 mph 1019.6mb 55f 55f
7:50am 3.5ft 13s 8s 9 11 mph 1019mb 55f 55f
6:50am 3.5ft 10s 8s 11 13 mph 1018.4mb 55f 55f
5:50am 3.5ft 10s 8s 11 13 mph 1017.9mb 55f 54f
4:50am 3.5ft 15s 8s 9 11 mph 1017.6mb 55f 55f
3:50am 3.5ft 10s 8s 4 7 mph 1017.6mb 55f 55f
2:50am 3.5ft 10s 8s 7 9 mph 1017.7mb 55f 55f
1:50am 4.5ft 10s 9s 7 7 mph 1017.8mb 55f 55f
12:50am 3.5ft 11s 8s 7 9 mph 1017.8mb 55f 56f
Fri 05/26 11:50pm 3.5ft 15s 8s 7 7 mph 1017.8mb 55f 56f
10:50pm 3.5ft 11s 8s 4 7 mph 1017.8mb 55f 55f
9:50pm 3.5ft 14s 9s 4 4 mph 1017.4mb 56f 56f
8:50pm 3.5ft 15s 8s 7 9 mph 1017mb 56f 56f
7:50pm 3.5ft 11s 8s 9 11 mph 1016.6mb 56f 56f
6:50pm 4ft 15s 8s 7 9 mph 1016.7mb 57f 57f
5:50pm 4ft 10s 8s 7 9 mph 1016.7mb 57f 56f
4:50pm 4ft 11s 8s 9 9 mph 1016.5mb 57f 56f
3:50pm 3.5ft 10s 8s 9 9 mph 1016.7mb 57f 56f
2:50pm 4.5ft 10s 8s 9 9 mph 1016.9mb 57f 56f
1:50pm 4ft 10s 8s 7 7 mph 1016.9mb 57f 57f
12:50pm 4ft 10s 8s 4 7 mph 1016.8mb 57f 56f
11:50am 4.5ft 15s 8s 2 2 mph 1016.5mb 56f 56f
10:50am 3.5ft 15s 8s 2 2 mph 1016.3mb 55f 55f
9:50am 4ft 10s 8s 4 4 mph 1016mb 55f 55f
8:50am 4.5ft 12s 8s 4 7 mph 1015.6mb 55f 54f
7:50am 5ft 11s 9s 4 7 mph 1014.9mb 55f 54f
6:50am 4.5ft 11s 9s 2 7 mph 1014.6mb 55f 54f
5:50am 4.5ft 11s 9s 4 4 mph 1014mb 54f 54f
4:50am 4.5ft 11s 8s  -  2 mph 1013.8mb 54f 55f
3:50am 4.5ft 11s 8s 2 2 mph 1013.6mb 54f 55f
2:50am 4.5ft 11s 8s  -  0 mph 1013.4mb 54f 55f
1:50am 5ft 11s 9s  -  0 mph 1013.3mb 54f 55f
12:50am 5ft 11s 9s  -  2 mph 1013.2mb 55f 55f
Thu 05/25 11:50pm 5ft 11s 9s  -  2 mph 1013.1mb 55f 55f
10:50pm 4.5ft 10s 8s 2 2 mph 1012.8mb 55f 55f
9:50pm 5ft 12s 9s  -  2 mph 1012.3mb 55f 55f
8:50pm 5ft 13s 9s 4 7 mph 1011.6mb 55f 55f
7:50pm 5ft 11s 9s 4 7 mph 1011.3mb 55f 55f
6:50pm 5ft 11s 9s 9 9 mph 1010.9mb 55f 55f
5:50pm 5ft 10s 8s 9 11 mph 1010.9mb 55f 55f
4:50pm 5ft 12s 8s 7 9 mph 1011.3mb 55f 55f
3:50pm 4.5ft 11s 8s 9 11 mph 1011.6mb 55f 55f
2:50pm 5ft 12s 8s 11 13 mph 1011.8mb 55f 55f
1:50pm 5ft 12s 9s 11 13 mph 1012mb 54f 55f
12:50pm 5ft 12s 9s 9 11 mph 1012mb 55f 55f
11:50am 5ft 11s 9s 11 13 mph 1011.9mb 55f 55f
10:50am 5ft 12s 10s 7 9 mph 1011.6mb 54f 54f
9:50am 6ft 11s 10s 7 9 mph 1011.4mb 54f 54f
8:50am 6ft 12s 10s 7 9 mph 1011mb 54f 54f
7:50am 5ft 11s 10s 4 7 mph 1010.6mb 54f 54f
6:50am 5ft 12s 10s 4 7 mph 1010.4mb 54f 54f
5:50am 5ft 13s 10s 4 4 mph 1010.3mb 54f 54f
4:50am 5ft 11s 10s 4 7 mph 1010.4mb 55f 54f
3:50am 5ft 11s 10s 2 2 mph 1010.4mb 55f 55f
2:50am 5ft 12s 10s 2 4 mph 1010.4mb 55f 55f
1:50am 5.5ft 13s 10s 2 2 mph 1010.4mb 55f 55f
12:50am 4.5ft 11s 9s 2 2 mph 1010.4mb 55f 56f
Wed 05/24 11:50pm 5ft 13s 10s  -  2 mph 1010.5mb 55f 56f